Arthur, Nevada
Current Conditions -  °F | °C
As of 7:55 AM on Thursday 23 Oct 2014 (Local Time) from KENV Reporting Station
Clear Clear  
Wind Chill: 45°   Ceiling: Unl
Heat Index: 45°   Visibility: 10mi
Dew Point: 30°   Wind: 0mph
Humidity: 57%   Direction: NA
Pressure: 30.15"   Gusts: NA
Location:  41.0114°N, 114.57°W
Report Text: KENV 231455Z AUTO 00000KT 10SM CLR 07/M01 A3015 RMK AO1 52007
Loading
Personal Weather Stations






























Interactive Weather Map
Tropical Storm Tracking
New forecast layout! Learn more

10-Day Weather Forecast

Advertisements
Track Severe Weather on mobile